Aviation Digital Data Service (ADDS)

Output produced by METARs form (1321 UTC 24 August 2019)
found at http://www.aviationweather.gov/metar/data/
 
Forecast for: EBFN (KOKSIJDE (BEL-AF, BE)
Text: TAF EBFN 240841Z 2410/2419 12005KT 9999 SCT250
Forecast period: 1000 to 1900 UTC 24 August 2019
Forecast type: FROM: standard forecast or significant change
Winds: from the ESE (120 degrees) at 6 MPH (5 knots; 2.6 m/s)
Visibility: 6 or more miles 10+ km)
Ceiling: at least 12,000 feet AGL
Clouds: scattered clouds at 25000 feet AGL
Weather: no significant weather forecast for this period